Time;durP1;ratioP1;P1;durP2;ratioP2;P2;SDS_P1;SDS_P2;PMS_P1;PMS_P2;Temp;Humidity;BMP_temperature;BMP_pressure;BME280_temperature;BME280_humidity;BME280_pressure;Samples;Min_cycle;Max_cycle;Signal;HPM_P1;HPM_P2
2022/09/10 00:01:38;;;;;;;6.72;1.38;;;20.10;90.40;;;;;;6308989;22;20006;-69
2022/09/10 00:04:11;;;;;;;4.45;1.30;;;20.10;90.40;;;;;;6309029;22;20433;-68
2022/09/10 00:06:37;;;;;;;2.60;1.30;;;20.10;90.50;;;;;;6308854;22;20023;-68
2022/09/10 00:09:04;;;;;;;4.55;1.42;;;20.00;90.50;;;;;;6308491;22;20426;-68
2022/09/10 00:11:30;;;;;;;4.55;1.70;;;20.00;90.50;;;;;;6308812;22;20078;-68
2022/09/10 00:13:58;;;;;;;6.35;1.60;;;20.00;90.50;;;;;;6308800;22;20090;-68
2022/09/10 00:16:25;;;;;;;3.03;1.40;;;20.00;90.60;;;;;;6308731;22;20001;-68
2022/09/10 00:18:51;;;;;;;6.85;1.13;;;20.00;90.60;;;;;;6309287;22;20076;-68
2022/09/10 00:21:19;;;;;;;5.47;1.48;;;20.00;90.60;;;;;;6309007;22;20425;-69
2022/09/10 00:23:46;;;;;;;3.15;1.30;;;20.00;90.60;;;;;;6307478;22;20003;-68
2022/09/10 00:26:23;;;;;;;3.95;1.40;;;20.00;90.60;;;;;;6308698;22;20082;-68
2022/09/10 00:28:50;;;;;;;2.65;1.27;;;19.90;90.60;;;;;;6309293;22;20022;-68
2022/09/10 00:31:18;;;;;;;8.80;1.63;;;20.00;90.70;;;;;;6309322;22;20309;-68
2022/09/10 00:33:43;;;;;;;7.72;1.60;;;20.00;90.70;;;;;;6308604;22;19999;-68
2022/09/10 00:36:14;;;;;;;5.10;2.22;;;20.00;90.70;;;;;;6309080;22;20044;-68
2022/09/10 00:38:40;;;;;;;3.95;1.50;;;20.00;90.80;;;;;;6308917;22;20010;-68
2022/09/10 00:41:07;;;;;;;6.97;1.50;;;20.00;90.80;;;;;;6308168;22;20006;-68
2022/09/10 00:44:25;;;;;;;5.85;1.70;;;20.00;90.90;;;;;;6308563;22;20035;-68
2022/09/10 00:46:53;;;;;;;6.60;1.58;;;20.00;90.90;;;;;;6218693;22;20019;-69
2022/09/10 00:49:24;;;;;;;4.95;1.70;;;20.00;90.90;;;;;;6308948;22;20006;-69
2022/09/10 00:51:52;;;;;;;4.10;1.40;;;20.00;90.90;;;;;;6309124;22;20065;-68
2022/09/10 00:54:22;;;;;;;6.82;2.00;;;20.00;90.90;;;;;;6309038;22;20373;-68
2022/09/10 00:56:48;;;;;;;4.80;1.67;;;20.00;90.80;;;;;;6308508;22;20003;-68
2022/09/10 00:59:19;;;;;;;4.70;1.48;;;20.00;90.70;;;;;;6305271;22;20006;-69
2022/09/10 01:01:46;;;;;;;3.03;1.70;;;20.00;90.70;;;;;;6305478;22;20011;-69
2022/09/10 01:04:12;;;;;;;4.55;1.42;;;20.00;90.70;;;;;;6306023;22;19999;-68
2022/09/10 01:06:40;;;;;;;7.30;1.55;;;20.00;90.60;;;;;;6308142;22;20003;-68
2022/09/10 01:09:06;;;;;;;5.57;1.67;;;20.00;90.60;;;;;;6308494;22;20082;-68
2022/09/10 01:11:51;;;;;;;4.65;1.45;;;20.00;90.60;;;;;;6308460;22;20022;-69
2022/09/10 01:14:22;;;;;;;7.65;1.65;;;20.00;90.60;;;;;;6308142;22;20078;-68
2022/09/10 01:17:11;;;;;;;4.13;1.50;;;20.00;90.70;;;;;;6308262;22;20344;-68
2022/09/10 01:19:43;;;;;;;10.50;1.60;;;20.00;90.70;;;;;;6295819;22;20044;-68
2022/09/10 01:22:33;;;;;;;5.30;1.73;;;20.00;90.70;;;;;;6308017;22;20027;-68
2022/09/10 01:25:07;;;;;;;8.50;2.67;;;20.00;90.80;;;;;;6308267;22;20007;-75
2022/09/10 01:27:43;;;;;;;3.47;1.45;;;20.00;90.80;;;;;;6307933;22;20038;-68
2022/09/10 01:30:23;;;;;;;4.97;1.60;;;19.90;90.80;;;;;;6308059;22;20006;-68
2022/09/10 01:32:56;;;;;;;7.18;1.50;;;19.90;90.60;;;;;;6308420;22;20074;-68
2022/09/10 01:35:48;;;;;;;5.43;1.98;;;19.90;90.70;;;;;;6307983;22;20070;-68
2022/09/10 01:38:30;;;;;;;4.37;2.07;;;19.90;90.80;;;;;;6307870;22;20000;-68
2022/09/10 01:40:57;;;;;;;8.18;1.42;;;19.90;90.90;;;;;;6307979;22;20007;-68
2022/09/10 01:43:23;;;;;;;2.80;1.33;;;19.90;90.90;;;;;;6308288;22;20090;-74
2022/09/10 01:46:23;;;;;;;5.85;1.10;;;19.90;90.90;;;;;;6308187;22;20074;-68
2022/09/10 01:49:05;;;;;;;3.47;1.10;;;19.90;90.60;;;;;;6308440;22;20015;-68
2022/09/10 01:51:56;;;;;;;2.97;1.30;;;19.90;90.50;;;;;;6307875;22;20003;-69
2022/09/10 01:54:24;;;;;;;6.60;1.70;;;19.90;90.30;;;;;;6306690;22;20306;-69
2022/09/10 01:57:09;;;;;;;4.47;1.00;;;19.80;90.20;;;;;;6308175;22;20417;-69
2022/09/10 01:59:43;;;;;;;3.58;1.10;;;19.80;90.20;;;;;;6308004;22;20317;-74
2022/09/10 02:02:15;;;;;;;7.20;1.20;;;19.80;90.30;;;;;;6307886;22;20000;-74
2022/09/10 02:04:45;;;;;;;6.68;1.30;;;19.80;90.50;;;;;;6307902;22;20030;-68
2022/09/10 02:07:12;;;;;;;3.95;1.42;;;19.70;90.40;;;;;;6308237;22;20007;-68
2022/09/10 02:09:38;;;;;;;9.68;1.15;;;19.70;90.40;;;;;;6307651;22;20007;-68
2022/09/10 02:12:05;;;;;;;5.57;1.27;;;19.70;90.50;;;;;;6308291;22;20321;-68
2022/09/10 02:14:31;;;;;;;4.50;1.08;;;19.70;90.50;;;;;;6307937;22;20448;-68
2022/09/10 02:16:58;;;;;;;7.35;1.00;;;19.70;90.50;;;;;;6307694;22;20000;-68
2022/09/10 02:19:27;;;;;;;5.03;1.40;;;19.70;90.50;;;;;;6307753;22;20029;-68
2022/09/10 02:21:55;;;;;;;3.35;1.00;;;19.70;90.50;;;;;;6308181;22;20353;-69
2022/09/10 02:24:21;;;;;;;2.08;1.30;;;19.70;90.50;;;;;;6307884;22;19999;-72
2022/09/10 02:26:47;;;;;;;5.75;1.15;;;19.70;90.50;;;;;;6307757;22;20070;-69
2022/09/10 02:29:15;;;;;;;5.88;1.30;;;19.60;90.70;;;;;;6307669;22;20011;-67
2022/09/10 02:31:42;;;;;;;1.75;0.90;;;19.60;90.50;;;;;;6307814;22;20321;-71
2022/09/10 02:34:09;;;;;;;4.10;1.02;;;19.60;90.50;;;;;;6308086;22;20007;-75
2022/09/10 02:36:36;;;;;;;5.10;1.20;;;19.60;90.40;;;;;;6307710;22;19995;-68
2022/09/10 02:39:03;;;;;;;2.45;1.17;;;19.60;90.40;;;;;;6307624;22;20007;-69
2022/09/10 02:41:31;;;;;;;7.40;1.27;;;19.60;90.30;;;;;;6307592;22;20000;-69
2022/09/10 02:43:57;;;;;;;2.60;0.90;;;19.50;90.30;;;;;;6307691;22;20576;-68
2022/09/10 02:46:22;;;;;;;6.22;1.33;;;19.60;90.30;;;;;;6307443;22;20046;-68
2022/09/10 02:48:48;;;;;;;6.43;0.95;;;19.50;90.20;;;;;;6307200;22;20448;-68
2022/09/10 02:51:14;;;;;;;1.80;1.00;;;19.50;90.20;;;;;;6307560;22;20023;-68
2022/09/10 02:53:39;;;;;;;6.53;1.40;;;19.50;90.20;;;;;;6307727;22;20010;-68
2022/09/10 02:56:06;;;;;;;4.85;1.10;;;19.50;90.20;;;;;;6307413;22;19995;-68
2022/09/10 02:58:32;;;;;;;2.97;1.20;;;19.50;90.20;;;;;;6307480;22;20373;-68
2022/09/10 03:01:10;;;;;;;6.43;1.10;;;19.50;90.30;;;;;;6307539;22;20070;-68
2022/09/10 03:03:36;;;;;;;5.28;1.20;;;19.50;90.30;;;;;;6307391;22;20074;-68
2022/09/10 03:06:03;;;;;;;4.38;1.08;;;19.40;90.30;;;;;;6307398;22;20045;-68
2022/09/10 03:08:29;;;;;;;2.67;1.10;;;19.40;90.30;;;;;;6307539;22;20329;-68
2022/09/10 03:10:58;;;;;;;5.22;1.42;;;19.40;90.40;;;;;;6307511;22;20325;-68
2022/09/10 03:13:26;;;;;;;2.17;1.17;;;19.30;90.30;;;;;;6307683;22;20070;-68
2022/09/10 03:15:57;;;;;;;6.88;1.08;;;19.30;90.30;;;;;;6307462;22;20078;-68
2022/09/10 03:18:23;;;;;;;4.47;1.35;;;19.30;90.30;;;;;;6307876;22;20010;-68
2022/09/10 03:20:50;;;;;;;4.20;1.40;;;19.30;90.30;;;;;;6307564;22;20023;-68
2022/09/10 03:23:17;;;;;;;4.65;1.15;;;19.20;90.30;;;;;;6307443;22;20052;-68
2022/09/10 03:25:43;;;;;;;4.72;1.25;;;19.20;90.40;;;;;;6307309;22;20078;-69
2022/09/10 03:28:09;;;;;;;6.60;1.77;;;19.20;90.40;;;;;;6307209;22;20012;-68
2022/09/10 03:30:36;;;;;;;2.45;1.13;;;19.20;90.50;;;;;;6307734;22;20003;-68
2022/09/10 03:33:03;;;;;;;4.47;1.20;;;19.10;90.50;;;;;;6307407;22;20003;-68
2022/09/10 03:35:28;;;;;;;6.60;1.20;;;19.10;90.50;;;;;;6307248;22;20046;-68
2022/09/10 03:37:54;;;;;;;9.90;1.40;;;19.10;90.50;;;;;;6307300;22;20004;-68
2022/09/10 03:40:20;;;;;;;5.97;1.25;;;19.10;90.50;;;;;;6307209;22;20006;-68
2022/09/10 03:42:45;;;;;;;3.28;1.10;;;19.10;90.60;;;;;;6307189;22;20371;-68
2022/09/10 03:45:12;;;;;;;6.32;1.20;;;19.10;90.60;;;;;;6307305;22;20003;-68
2022/09/10 03:47:39;;;;;;;5.20;1.05;;;19.10;90.60;;;;;;6307105;22;20038;-68
2022/09/10 03:50:05;;;;;;;4.00;1.30;;;19.00;90.60;;;;;;6307394;22;19999;-68
2022/09/10 03:52:31;;;;;;;6.82;1.20;;;19.00;90.50;;;;;;6307152;22;20067;-68
2022/09/10 03:54:57;;;;;;;2.08;1.25;;;19.00;90.40;;;;;;6307391;22;20355;-68
2022/09/10 03:57:24;;;;;;;7.63;1.20;;;19.00;90.40;;;;;;6307249;22;20061;-74
2022/09/10 03:59:50;;;;;;;4.88;1.27;;;19.00;90.40;;;;;;6307044;22;19999;-68
2022/09/10 04:02:16;;;;;;;2.88;1.35;;;18.90;90.40;;;;;;6307069;22;20028;-68
2022/09/10 04:04:41;;;;;;;10.00;1.40;;;18.90;90.50;;;;;;6306991;22;20006;-74
2022/09/10 04:07:09;;;;;;;5.50;1.20;;;18.90;90.40;;;;;;6307089;22;20003;-75
2022/09/10 04:09:35;;;;;;;4.43;1.48;;;18.90;90.50;;;;;;6307227;22;20425;-68
2022/09/10 04:12:02;;;;;;;2.83;1.45;;;18.90;90.50;;;;;;6307035;22;20074;-71
2022/09/10 04:14:28;;;;;;;8.55;1.63;;;18.90;90.60;;;;;;6306998;22;19999;-68
2022/09/10 04:16:56;;;;;;;3.97;1.45;;;18.90;90.60;;;;;;6309082;22;20003;-69
2022/09/10 04:19:21;;;;;;;5.72;1.50;;;18.90;90.90;;;;;;6309424;22;19999;-74
2022/09/10 04:21:47;;;;;;;4.40;1.60;;;18.90;90.60;;;;;;6308997;22;20057;-73
2022/09/10 04:24:13;;;;;;;5.57;1.92;;;18.90;90.60;;;;;;6309014;22;20042;-69
2022/09/10 04:26:39;;;;;;;6.78;1.65;;;18.90;90.60;;;;;;6309205;22;20003;-68
2022/09/10 04:29:05;;;;;;;8.23;2.50;;;18.90;90.70;;;;;;6308785;22;20016;-68
2022/09/10 04:31:30;;;;;;;3.53;1.80;;;18.90;90.70;;;;;;6308624;22;20003;-68
2022/09/10 04:34:00;;;;;;;8.45;1.95;;;18.90;90.70;;;;;;6309072;22;19999;-68
2022/09/10 04:36:27;;;;;;;6.75;1.92;;;18.80;90.70;;;;;;6309055;22;20330;-68
2022/09/10 04:38:52;;;;;;;7.25;1.90;;;18.80;90.80;;;;;;6308714;22;20003;-68
2022/09/10 04:41:18;;;;;;;4.97;2.00;;;18.90;90.90;;;;;;6308440;22;20004;-69
2022/09/10 04:43:44;;;;;;;3.30;1.63;;;18.80;90.90;;;;;;6308406;22;20337;-68
2022/09/10 04:46:10;;;;;;;8.40;1.50;;;18.80;90.90;;;;;;6308475;22;20453;-68
2022/09/10 04:48:37;;;;;;;6.63;1.38;;;18.80;90.90;;;;;;6309016;22;20015;-68
2022/09/10 04:51:03;;;;;;;6.03;1.10;;;18.80;91.10;;;;;;6308826;22;20414;-68
2022/09/10 04:53:30;;;;;;;5.28;1.00;;;18.80;90.80;;;;;;6308698;22;20031;-68
2022/09/10 04:55:56;;;;;;;5.32;1.52;;;18.80;90.80;;;;;;6308674;22;19996;-68
2022/09/10 04:58:22;;;;;;;3.03;1.00;;;18.80;90.70;;;;;;6308597;22;20010;-68
2022/09/10 05:00:48;;;;;;;3.65;1.15;;;18.80;90.70;;;;;;6309000;22;20091;-68
2022/09/10 05:03:14;;;;;;;7.03;1.30;;;18.80;90.80;;;;;;6308411;22;19999;-69
2022/09/10 05:05:41;;;;;;;4.20;1.10;;;18.80;90.70;;;;;;6308921;22;20010;-69
2022/09/10 05:08:07;;;;;;;7.30;1.00;;;18.80;90.70;;;;;;6308902;22;20020;-68
2022/09/10 05:10:35;;;;;;;8.45;1.52;;;18.80;90.60;;;;;;6308595;22;19999;-68
2022/09/10 05:13:01;;;;;;;2.20;1.30;;;18.70;90.60;;;;;;6308387;22;20017;-71
2022/09/10 05:15:27;;;;;;;6.57;1.20;;;18.70;90.60;;;;;;6308812;22;19999;-75
2022/09/10 05:17:52;;;;;;;8.50;1.50;;;18.70;90.50;;;;;;6308468;22;20006;-68
2022/09/10 05:20:19;;;;;;;9.73;2.15;;;18.80;90.50;;;;;;6308584;22;19999;-68
2022/09/10 05:22:44;;;;;;;9.25;1.60;;;18.80;90.60;;;;;;6308420;22;20003;-68
2022/09/10 05:25:10;;;;;;;8.65;1.52;;;18.70;90.70;;;;;;6308060;22;20010;-69
2022/09/10 05:27:36;;;;;;;7.00;1.80;;;18.80;90.80;;;;;;6308233;22;20007;-68
2022/09/10 05:30:03;;;;;;;6.50;1.40;;;18.80;90.80;;;;;;6308045;22;19995;-68
2022/09/10 05:32:31;;;;;;;5.63;1.73;;;18.80;90.90;;;;;;6308015;22;20337;-68
2022/09/10 05:34:57;;;;;;;5.68;1.35;;;18.70;90.90;;;;;;6307887;22;20070;-68
2022/09/10 05:37:23;;;;;;;2.85;1.35;;;18.80;90.90;;;;;;6308513;22;20023;-68
2022/09/10 05:39:49;;;;;;;4.65;1.42;;;18.80;90.80;;;;;;6308121;22;20003;-68
2022/09/10 05:42:15;;;;;;;5.13;1.50;;;18.80;90.80;;;;;;6308115;22;20022;-68
2022/09/10 05:44:40;;;;;;;8.30;1.35;;;18.80;90.80;;;;;;6308319;22;20003;-68
2022/09/10 05:47:08;;;;;;;3.88;1.75;;;18.80;90.80;;;;;;6308378;22;20018;-68
2022/09/10 05:49:34;;;;;;;4.40;1.40;;;18.70;90.80;;;;;;6308158;22;20010;-73
2022/09/10 05:52:00;;;;;;;6.72;1.40;;;18.80;90.70;;;;;;6308116;22;19999;-68
2022/09/10 05:54:25;;;;;;;3.28;1.58;;;18.70;90.60;;;;;;6307806;22;19999;-68
2022/09/10 05:56:51;;;;;;;3.67;1.20;;;18.80;90.70;;;;;;6308044;22;20497;-69
2022/09/10 05:59:16;;;;;;;6.15;1.27;;;18.80;90.60;;;;;;6308076;22;20436;-69
2022/09/10 06:01:42;;;;;;;10.23;1.95;;;18.80;90.50;;;;;;6307830;22;20033;-69
2022/09/10 06:04:10;;;;;;;6.20;1.90;;;18.80;90.60;;;;;;6307627;22;20034;-69
2022/09/10 06:06:35;;;;;;;5.43;1.40;;;18.80;90.70;;;;;;6307848;22;20425;-70
2022/09/10 06:09:01;;;;;;;6.38;1.58;;;18.80;90.80;;;;;;6307546;22;20014;-70
2022/09/10 06:11:26;;;;;;;8.30;1.40;;;18.80;90.80;;;;;;6307693;22;20417;-68
2022/09/10 06:13:52;;;;;;;5.75;1.80;;;18.80;90.90;;;;;;6307607;22;20003;-73
2022/09/10 06:16:18;;;;;;;6.45;1.48;;;18.90;90.90;;;;;;6308078;22;19995;-68
2022/09/10 06:18:44;;;;;;;3.97;1.60;;;18.90;91.00;;;;;;6307882;22;20003;-73
2022/09/10 06:21:15;;;;;;;7.10;1.27;;;18.90;91.00;;;;;;6307599;22;20325;-73
2022/09/10 06:23:41;;;;;;;3.65;1.40;;;18.90;90.90;;;;;;6307658;22;20371;-68
2022/09/10 06:26:11;;;;;;;4.32;1.27;;;18.90;90.90;;;;;;6307656;22;19999;-69
2022/09/10 06:28:37;;;;;;;2.15;1.17;;;18.90;91.00;;;;;;6307192;22;20015;-68
2022/09/10 06:31:04;;;;;;;2.15;1.10;;;19.00;91.10;;;;;;6307806;22;20034;-68
2022/09/10 06:33:31;;;;;;;2.70;1.13;;;19.00;91.10;;;;;;6307479;22;20003;-73
2022/09/10 06:35:59;;;;;;;6.38;1.65;;;19.00;91.10;;;;;;6307800;22;20074;-68
2022/09/10 06:38:29;;;;;;;4.65;1.17;;;19.00;91.10;;;;;;6307318;22;20337;-72
2022/09/10 06:40:59;;;;;;;5.32;1.20;;;19.10;91.10;;;;;;6307526;22;19996;-68
2022/09/10 06:43:25;;;;;;;6.35;1.58;;;19.20;90.90;;;;;;6307338;22;20010;-70
2022/09/10 06:45:54;;;;;;;4.78;0.90;;;19.10;90.60;;;;;;6307321;22;20003;-75
2022/09/10 06:48:27;;;;;;;5.28;1.20;;;19.20;90.50;;;;;;6305728;22;20011;-72
2022/09/10 06:50:59;;;;;;;;;;;19.30;90.30;;;;;;6307582;22;20418;-72
2022/09/10 06:53:27;;;;;;;4.07;1.05;;;19.30;90.20;;;;;;6307504;22;20229;-72
2022/09/10 06:55:53;;;;;;;5.28;1.30;;;19.30;90.00;;;;;;6307545;22;20070;-72
2022/09/10 06:58:23;;;;;;;6.78;1.20;;;19.40;90.00;;;;;;6307519;22;20074;-72
2022/09/10 07:00:50;;;;;;;3.15;0.82;;;19.40;90.00;;;;;;6307672;22;19996;-72
2022/09/10 07:03:18;;;;;;;3.70;1.05;;;19.40;89.90;;;;;;6307389;22;20138;-72
2022/09/10 07:05:44;;;;;;;5.35;1.30;;;19.50;89.70;;;;;;6305662;22;20004;-72
2022/09/10 07:08:14;;;;;;;5.90;1.15;;;19.60;89.30;;;;;;6307029;22;20453;-73
2022/09/10 07:10:43;;;;;;;3.45;1.10;;;19.70;89.60;;;;;;6307425;22;20026;-73
2022/09/10 07:13:10;;;;;;;2.60;1.00;;;19.70;88.60;;;;;;6307134;22;19999;-73
2022/09/10 07:15:36;;;;;;;4.85;1.20;;;19.70;88.30;;;;;;6307362;22;20075;-75
2022/09/10 07:18:02;;;;;;;1.73;0.93;;;19.80;88.00;;;;;;6306984;22;20035;-73
2022/09/10 07:20:29;;;;;;;2.25;1.00;;;19.90;87.70;;;;;;6306091;22;19999;-73
2022/09/10 07:22:55;;;;;;;1.45;0.90;;;19.90;87.60;;;;;;6304273;22;20082;-73
2022/09/10 07:25:22;;;;;;;3.00;1.05;;;19.90;87.40;;;;;;6303250;22;20003;-73
2022/09/10 07:27:49;;;;;;;3.97;1.15;;;20.00;87.30;;;;;;6301636;22;20046;-73
2022/09/10 07:30:15;;;;;;;6.45;1.10;;;20.10;87.00;;;;;;6306532;22;20422;-73
2022/09/10 07:32:42;;;;;;;7.47;1.05;;;20.20;87.00;;;;;;6308038;22;20034;-73
2022/09/10 07:35:08;;;;;;;2.05;0.63;;;20.20;86.90;;;;;;6307298;22;20007;-73
2022/09/10 07:37:34;;;;;;;9.73;1.48;;;20.30;86.50;;;;;;6307035;22;19995;-72
2022/09/10 07:40:00;;;;;;;1.67;0.90;;;20.30;86.00;;;;;;6307460;22;20083;-72
2022/09/10 07:42:26;;;;;;;4.97;1.15;;;20.40;85.60;;;;;;6307407;22;20067;-73
2022/09/10 07:44:51;;;;;;;6.10;1.00;;;20.50;85.60;;;;;;6307258;22;20010;-73
2022/09/10 07:47:17;;;;;;;4.25;1.00;;;20.50;85.60;;;;;;6306997;22;20425;-72
2022/09/10 07:49:43;;;;;;;3.92;0.98;;;20.60;85.80;;;;;;6306462;22;20387;-72
2022/09/10 07:52:10;;;;;;;7.25;1.00;;;20.70;85.70;;;;;;6307758;22;19999;-73
2022/09/10 07:54:37;;;;;;;2.08;0.70;;;20.70;85.50;;;;;;6308176;22;20007;-73
2022/09/10 07:57:03;;;;;;;2.75;1.10;;;20.80;84.60;;;;;;6307892;22;20070;-73
2022/09/10 07:59:29;;;;;;;2.95;0.90;;;20.90;84.30;;;;;;6308731;22;20455;-73
2022/09/10 08:01:56;;;;;;;8.43;1.30;;;20.90;83.80;;;;;;6308958;22;20061;-72
2022/09/10 08:04:22;;;;;;;2.55;1.23;;;21.00;83.40;;;;;;6309100;22;20002;-73
2022/09/10 08:06:48;;;;;;;1.65;0.82;;;21.10;82.90;;;;;;6308665;22;20014;-74
2022/09/10 08:09:14;;;;;;;3.20;0.90;;;21.20;82.70;;;;;;6309079;22;20314;-73
2022/09/10 08:11:40;;;;;;;2.28;0.95;;;21.20;82.10;;;;;;6309118;22;20002;-73
2022/09/10 08:14:06;;;;;;;1.17;0.80;;;21.30;81.40;;;;;;6308895;22;20082;-72
2022/09/10 08:16:32;;;;;;;2.80;0.70;;;21.40;81.20;;;;;;6308099;22;20027;-73
2022/09/10 08:18:59;;;;;;;1.55;0.80;;;21.50;80.40;;;;;;6308101;22;20009;-73
2022/09/10 08:21:25;;;;;;;2.90;0.90;;;21.60;79.50;;;;;;6307588;22;20421;-72
2022/09/10 08:23:53;;;;;;;1.08;0.80;;;21.60;79.00;;;;;;6307537;22;20007;-73
2022/09/10 08:26:22;;;;;;;1.13;0.80;;;21.70;78.40;;;;;;6307765;22;20084;-73
2022/09/10 08:28:48;;;;;;;5.07;0.90;;;21.80;77.90;;;;;;6307940;22;20011;-73
2022/09/10 08:31:15;;;;;;;1.13;0.82;;;21.90;77.60;;;;;;6308903;22;20070;-72
2022/09/10 08:33:41;;;;;;;0.80;0.60;;;21.90;77.20;;;;;;6307380;22;20014;-73
2022/09/10 08:36:13;;;;;;;0.90;0.70;;;22.00;77.40;;;;;;6309175;22;19999;-73
2022/09/10 08:38:40;;;;;;;4.50;0.90;;;22.10;76.50;;;;;;6308702;22;20003;-73
2022/09/10 08:41:20;;;;;;;1.83;0.73;;;22.20;76.50;;;;;;6307829;22;19995;-72
2022/09/10 08:43:58;;;;;;;1.23;0.90;;;22.20;75.80;;;;;;6307890;22;20071;-73
2022/09/10 08:46:28;;;;;;;2.95;0.85;;;22.30;74.80;;;;;;6306353;22;20015;-73
2022/09/10 08:49:02;;;;;;;1.83;0.60;;;22.30;74.10;;;;;;6305317;22;20011;-73
2022/09/10 08:51:36;;;;;;;3.47;0.70;;;22.40;73.70;;;;;;6305680;22;19999;-73
2022/09/10 08:54:10;;;;;;;0.75;0.45;;;22.50;73.60;;;;;;6306925;22;20003;-74
2022/09/10 08:56:36;;;;;;;1.60;0.50;;;22.60;72.20;;;;;;6307980;22;20325;-73
2022/09/10 08:59:20;;;;;;;4.82;0.70;;;22.60;70.80;;;;;;6306891;22;20085;-73
2022/09/10 09:02:33;;;;;;;5.10;0.60;;;22.70;70.60;;;;;;6305099;22;20003;-73
2022/09/10 09:05:11;;;;;;;3.13;0.60;;;22.80;69.60;;;;;;6210192;23;20047;-73
2022/09/10 09:07:39;;;;;;;1.27;0.60;;;22.90;68.40;;;;;;6211553;23;20032;-74
2022/09/10 09:10:19;;;;;;;0.77;0.40;;;23.00;68.00;;;;;;6271005;22;20026;-73
2022/09/10 09:13:14;;;;;;;1.52;0.65;;;23.00;66.40;;;;;;6307062;22;20063;-73
2022/09/10 09:16:11;;;;;;;0.93;0.60;;;23.00;67.00;;;;;;6306299;22;20007;-74
2022/09/10 09:18:56;;;;;;;1.92;0.70;;;23.10;68.40;;;;;;6306467;22;20033;-73
2022/09/10 09:21:52;;;;;;;2.83;0.90;;;23.20;68.80;;;;;;6308378;22;20009;-73
2022/09/10 09:24:43;;;;;;;0.82;0.45;;;23.30;69.00;;;;;;6308643;22;19996;-72
2022/09/10 09:27:18;;;;;;;1.88;0.60;;;23.30;68.20;;;;;;6308037;22;20027;-72
2022/09/10 09:29:54;;;;;;;1.98;0.70;;;23.30;68.30;;;;;;6308248;22;20011;-72
2022/09/10 09:32:21;;;;;;;0.98;0.60;;;23.30;68.10;;;;;;6308337;22;20003;-73
2022/09/10 09:35:15;;;;;;;8.05;0.90;;;23.40;67.50;;;;;;6308158;22;20449;-72
2022/09/10 09:37:46;;;;;;;6.20;1.10;;;23.50;67.80;;;;;;6308091;22;20003;-73
2022/09/10 09:40:15;;;;;;;7.30;1.20;;;23.50;67.60;;;;;;6308107;22;19999;-73
2022/09/10 09:42:50;;;;;;;13.32;1.60;;;23.50;68.10;;;;;;6308089;22;20003;-73
2022/09/10 09:45:36;;;;;;;6.50;1.00;;;23.60;68.50;;;;;;6308466;22;20041;-73
2022/09/10 09:48:05;;;;;;;6.10;0.65;;;23.60;68.80;;;;;;6308017;22;20433;-74
2022/09/10 09:50:33;;;;;;;3.00;0.70;;;23.60;68.90;;;;;;6308258;22;20325;-74
2022/09/10 09:52:59;;;;;;;1.58;0.60;;;23.70;68.50;;;;;;6308146;22;20373;-74
2022/09/10 09:55:40;;;;;;;8.60;0.93;;;23.60;68.10;;;;;;6308086;22;19995;-73
2022/09/10 09:58:22;;;;;;;3.50;0.50;;;23.70;68.40;;;;;;6308056;22;20073;-74
2022/09/10 10:00:51;;;;;;;0.95;0.50;;;23.70;67.00;;;;;;6307798;22;19999;-73
2022/09/10 10:03:28;;;;;;;0.60;0.35;;;23.80;64.40;;;;;;6307885;22;20363;-73
2022/09/10 10:06:06;;;;;;;25.35;1.63;;;23.90;60.40;;;;;;6307648;22;20003;-74
2022/09/10 10:08:36;;;;;;;16.17;1.13;;;23.90;60.90;;;;;;6307341;22;20014;-75
2022/09/10 10:11:03;;;;;;;0.88;0.50;;;24.00;61.80;;;;;;6307838;22;20077;-73
2022/09/10 10:13:41;;;;;;;1.20;0.50;;;24.00;60.90;;;;;;6307317;22;20049;-74
2022/09/10 10:16:21;;;;;;;2.28;0.65;;;24.00;60.40;;;;;;6307570;22;19999;-73
2022/09/10 10:18:47;;;;;;;4.72;0.60;;;24.10;61.10;;;;;;6307609;22;20082;-73
2022/09/10 10:21:32;;;;;;;2.45;0.55;;;24.20;60.50;;;;;;6307470;22;19996;-73
2022/09/10 10:23:59;;;;;;;1.35;0.60;;;24.20;59.70;;;;;;6307742;22;20075;-73
2022/09/10 10:26:35;;;;;;;3.33;0.65;;;24.30;59.70;;;;;;6307724;22;20022;-75
2022/09/10 10:29:19;;;;;;;0.70;0.50;;;24.30;59.00;;;;;;6305869;22;20064;-73
2022/09/10 10:31:49;;;;;;;3.83;0.60;;;24.40;59.50;;;;;;6307556;22;20056;-73
2022/09/10 10:34:33;;;;;;;0.38;0.35;;;24.50;60.00;;;;;;6307213;22;20000;-73
2022/09/10 10:37:17;;;;;;;2.45;0.50;;;24.50;58.90;;;;;;6306280;22;19995;-73
2022/09/10 10:39:54;;;;;;;1.08;0.47;;;24.60;56.60;;;;;;6307766;22;20033;-73
2022/09/10 10:43:09;;;;;;;3.15;0.60;;;24.60;57.20;;;;;;6306934;22;20003;-74
2022/09/10 10:45:47;;;;;;;2.63;0.30;;;24.70;57.40;;;;;;6286972;22;20027;-73
2022/09/10 10:49:01;;;;;;;3.30;0.50;;;24.80;56.90;;;;;;6307396;22;20015;-75
2022/09/10 10:51:44;;;;;;;1.23;0.40;;;24.80;57.80;;;;;;6259931;22;20003;-73
2022/09/10 10:54:31;;;;;;;0.65;0.30;;;24.90;56.50;;;;;;6307748;22;20097;-73
2022/09/10 10:57:15;;;;;;;2.22;0.70;;;24.90;56.40;;;;;;6307799;22;20000;-75
2022/09/10 10:59:46;;;;;;;0.77;0.40;;;25.00;56.10;;;;;;6307763;22;20106;-75
2022/09/10 11:02:32;;;;;;;1.50;0.40;;;25.00;54.80;;;;;;6307763;22;20097;-73
2022/09/10 11:05:03;;;;;;;2.30;0.50;;;25.00;53.40;;;;;;6307799;22;20003;-73
2022/09/10 11:07:38;;;;;;;3.22;0.50;;;25.10;53.40;;;;;;6307589;22;20003;-73
2022/09/10 11:10:25;;;;;;;0.75;0.35;;;25.20;54.30;;;;;;6307590;22;20064;-75
2022/09/10 11:13:05;;;;;;;0.65;0.40;;;25.20;54.30;;;;;;6307628;22;20053;-73
2022/09/10 11:15:58;;;;;;;0.98;0.50;;;25.20;54.60;;;;;;6307415;22;20008;-74
2022/09/10 11:18:33;;;;;;;1.67;0.45;;;25.20;54.20;;;;;;6307720;22;19999;-75
2022/09/10 11:21:10;;;;;;;1.80;0.60;;;25.30;53.20;;;;;;6307744;22;19999;-73
2022/09/10 11:23:44;;;;;;;0.80;0.50;;;25.30;52.50;;;;;;6305128;22;20007;-74
2022/09/10 11:26:17;;;;;;;1.70;0.43;;;25.20;53.20;;;;;;6306025;22;20437;-73
2022/09/10 11:29:00;;;;;;;2.05;0.40;;;25.30;54.00;;;;;;6306202;22;20023;-73
2022/09/10 11:31:39;;;;;;;2.75;0.50;;;25.30;55.10;;;;;;6309857;22;20326;-73
2022/09/10 11:34:19;;;;;;;1.17;0.60;;;25.30;54.90;;;;;;6309589;22;20006;-73
2022/09/10 11:37:02;;;;;;;3.35;0.50;;;25.40;53.80;;;;;;6309755;22;20005;-73
2022/09/10 11:39:34;;;;;;;2.38;0.50;;;25.40;52.50;;;;;;6309477;22;20089;-73
2022/09/10 11:42:12;;;;;;;1.10;0.43;;;25.40;52.40;;;;;;6309560;22;19999;-73
2022/09/10 11:44:47;;;;;;;1.10;0.50;;;25.40;52.30;;;;;;6309364;22;20307;-73
2022/09/10 11:47:29;;;;;;;0.40;0.28;;;25.40;52.20;;;;;;6309514;22;20332;-73
2022/09/10 11:50:27;;;;;;;5.15;0.80;;;25.50;53.10;;;;;;6305566;22;20015;-73
2022/09/10 11:52:57;;;;;;;0.60;0.30;;;25.50;52.50;;;;;;6305904;22;20009;-73
2022/09/10 11:55:56;;;;;;;2.30;0.60;;;25.60;52.20;;;;;;6307564;22;20022;-75
2022/09/10 11:58:41;;;;;;;0.65;0.35;;;25.60;51.60;;;;;;6288613;22;20014;-74
2022/09/10 12:01:32;;;;;;;1.45;0.40;;;25.60;50.70;;;;;;6307568;22;20090;-74
2022/09/10 12:04:06;;;;;;;3.92;0.70;;;25.80;50.50;;;;;;6308951;22;19995;-74
2022/09/10 12:06:53;;;;;;;2.05;0.35;;;25.70;49.90;;;;;;6309248;22;20007;-73
2022/09/10 12:09:44;;;;;;;0.32;0.32;;;25.80;49.70;;;;;;6309385;22;20069;-74
2022/09/10 12:12:12;;;;;;;0.63;0.40;;;25.80;50.70;;;;;;6306997;22;19995;-74
2022/09/10 12:14:40;;;;;;;4.88;0.65;;;25.80;51.50;;;;;;6307059;22;20005;-74
2022/09/10 12:17:28;;;;;;;2.30;0.40;;;25.90;51.50;;;;;;6308850;22;20029;-74
2022/09/10 12:19:56;;;;;;;0.65;0.40;;;25.90;50.40;;;;;;6308150;22;20002;-73
2022/09/10 12:22:39;;;;;;;1.55;0.50;;;25.80;50.10;;;;;;6308789;22;20023;-74
2022/09/10 12:25:19;;;;;;;1.80;0.60;;;25.70;50.00;;;;;;6308508;22;20003;-73
2022/09/10 12:28:25;;;;;;;0.55;0.30;;;25.60;50.10;;;;;;6308738;22;20014;-74
2022/09/10 12:30:57;;;;;;;1.30;0.50;;;25.50;49.90;;;;;;6308754;22;20364;-73
2022/09/10 12:33:24;;;;;;;3.95;0.70;;;25.40;50.70;;;;;;6308282;22;20064;-72
2022/09/10 12:35:51;;;;;;;0.93;0.50;;;25.30;51.00;;;;;;6307984;22;20003;-72
2022/09/10 12:51:19;;;;;;;1.02;0.50;;;25.10;51.20;;;;;;5110563;27;20391;-77
2022/09/10 12:54:26;;;;;;;1.80;0.60;;;25.10;50.70;;;;;;5110338;28;20111;-72
2022/09/10 12:57:29;;;;;;;0.98;0.50;;;25.00;51.30;;;;;;5110099;28;20023;-74
2022/09/10 13:00:10;;;;;;;7.50;0.80;;;25.00;51.40;;;;;;5110194;28;20039;-72
2022/09/10 13:02:45;;;;;;;3.70;0.93;;;25.00;51.90;;;;;;5110274;28;20480;-75
2022/09/10 13:05:26;;;;;;;5.25;1.35;;;24.90;55.80;;;;;;5110401;28;20442;-77
2022/09/10 13:08:12;;;;;;;6.87;1.73;;;24.90;59.90;;;;;;5107680;28;20032;-74
2022/09/10 13:10:39;;;;;;;4.82;1.23;;;24.80;60.80;;;;;;5107661;28;20012;-73
2022/09/10 13:13:18;;;;;;;5.97;1.10;;;24.70;62.70;;;;;;5110089;28;20028;-74
2022/09/10 13:15:50;;;;;;;4.50;1.13;;;24.70;63.00;;;;;;5110138;28;20522;-73
2022/09/10 13:18:34;;;;;;;1.90;0.90;;;24.60;63.70;;;;;;5110181;28;20065;-73
2022/09/10 13:21:22;;;;;;;3.58;1.00;;;24.60;62.60;;;;;;5109918;28;20118;-73
2022/09/10 13:23:52;;;;;;;3.75;1.10;;;24.60;61.70;;;;;;5109835;28;20385;-73
2022/09/10 13:26:30;;;;;;;17.15;3.03;;;24.60;61.80;;;;;;5110237;28;20380;-72